»·PEaware :: N573BZ KBUR-KFUL

N573BZ :: KBUR-KFUL

FLIGHT INFORMATION

Flight Status: Arrived
Operator: Privately registered:
United States
More flights under this callsign
Pilot: Ed S. (33230)
Aircraft: Unknown
(P28S)
More flights by this aircraft type
Origin: KBUR Bob Hope-Burbank
United States
Destination: KFUL Fullerton Mun
United States
More flights between these airports :: More routes between these airports
Route: KEMT
File this flight plan on PilotEdge
Remarks:
Altitude:
(Current/Filed)
3,500ft
Speed:
(Current/Filed)
130kts
Departed: 20-Jan-21 08:54 AM
Arrived: 20-Jan-21 09:15 AM
Distance/Time
Traveled:
27nm/0:21
Distance/Time
To Go:
Arrived

Flight Plot

Page will automatically refresh every two minutes.


Map Options




Map Legend


Flown Route
Filed Route
Departure Airport
Arrival Airport
Navaid (VOR, NDB)
Fix

Horizontal Profiles

Position Reports

Time Latitude Longitude Heading Altitude Ground
Speed
20-Jan-21 08:31 34.200210 -118.358860 280 720ft 0kts
20-Jan-21 08:32 34.200210 -118.358860 280 720ft 0kts
20-Jan-21 08:33 34.200210 -118.358860 280 720ft 0kts
20-Jan-21 08:34 34.200210 -118.358860 280 720ft 0kts
20-Jan-21 08:35 34.200210 -118.358860 280 720ft 0kts
20-Jan-21 08:36 34.200210 -118.358860 280 720ft 0kts
20-Jan-21 08:37 34.200210 -118.358860 280 720ft 0kts
20-Jan-21 08:38 34.200210 -118.358860 280 720ft 0kts
20-Jan-21 08:39 34.200210 -118.358860 280 720ft 0kts
20-Jan-21 08:40 34.200210 -118.358860 280 720ft 0kts
20-Jan-21 08:41 34.200210 -118.358860 280 720ft 0kts
20-Jan-21 08:42 34.200210 -118.358860 280 720ft 0kts
20-Jan-21 08:43 34.200210 -118.358860 280 720ft 0kts
20-Jan-21 08:44 34.200210 -118.358860 280 720ft 0kts
20-Jan-21 08:45 34.200356 -118.359138 328 721ft 7kts
20-Jan-21 08:46 34.202196 -118.358829 342 728ft 10kts
20-Jan-21 08:47 34.206004 -118.359887 348 741ft 17kts
20-Jan-21 08:48 34.210593 -118.361138 347 765ft 16kts
20-Jan-21 08:49 34.211416 -118.361268 21 767ft 0kts
20-Jan-21 08:50 34.211477 -118.361231 28 767ft 0kts
20-Jan-21 08:51 34.211477 -118.361231 28 767ft 0kts
20-Jan-21 08:52 34.211477 -118.361231 28 767ft 0kts
20-Jan-21 08:53 34.202458 -118.357225 164 975ft 94kts
20-Jan-21 08:54 34.174091 -118.343582 124 1631ft 120kts
20-Jan-21 08:55 34.169568 -118.303572 94 2331ft 121kts
20-Jan-21 08:56 34.167529 -118.261845 97 2816ft 125kts
20-Jan-21 08:57 34.165248 -118.220059 97 3314ft 123kts
20-Jan-21 08:58 34.162947 -118.177434 97 3476ft 132kts
20-Jan-21 08:59 34.146779 -118.140160 127 3473ft 126kts
20-Jan-21 09:00 34.126815 -118.106411 124 3468ft 118kts
20-Jan-21 09:01 34.107301 -118.074835 122 3469ft 115kts
20-Jan-21 09:02 34.084243 -118.047014 138 3466ft 122kts
20-Jan-21 09:03 34.052906 -118.028595 158 3469ft 130kts
20-Jan-21 09:04 34.017109 -118.019441 157 3470ft 131kts
20-Jan-21 09:05 33.982079 -118.008125 158 3203ft 132kts
20-Jan-21 09:06 33.950002 -117.991439 102 2690ft 120kts
20-Jan-21 09:07 33.951471 -117.954529 82 2563ft 104kts
20-Jan-21 09:09 33.959643 -117.928951 357 2574ft 114kts
20-Jan-21 09:10 33.960606 -117.965318 226 2367ft 142kts
20-Jan-21 09:11 33.926946 -117.984573 204 2071ft 140kts
20-Jan-21 09:12 33.894474 -118.011127 214 1377ft 129kts
20-Jan-21 09:13 33.870278 -118.010163 102 521ft 90kts
20-Jan-21 09:14 33.870994 -117.984970 75 117ft 62kts
20-Jan-21 09:15 33.871355 -117.981158 170 90ft 0kts
20-Jan-21 09:16 33.870662 -117.980682 91 91ft 0kts
20-Jan-21 09:17 33.871085 -117.980266 255 92ft 0kts
20-Jan-21 09:18 33.871085 -117.980266 255 92ft 0kts
20-Jan-21 09:19 33.871085 -117.980266 255 92ft 0kts
20-Jan-21 09:20 33.871085 -117.980266 255 92ft 0kts
20-Jan-21 09:21 33.871085 -117.980266 255 92ft 0kts
20-Jan-21 09:22 33.871085 -117.980266 255 92ft 0kts
20-Jan-21 09:23 33.871085 -117.980266 255 92ft 0kts
20-Jan-21 09:24 33.871085 -117.980266 255 92ft 0kts
20-Jan-21 09:24 33.871085 -117.980266 255 92ft 0kts
20-Jan-21 09:26 33.871085 -117.980266 255 92ft 0kts
20-Jan-21 09:27 33.871085 -117.980266 255 92ft 0kts
20-Jan-21 09:27 33.871085 -117.980266 255 92ft 0kts
20-Jan-21 09:29 33.871085 -117.980266 255 92ft 0kts

Navigation Log

Ident Type
Flight plan parsing failed, navigation log unavailable